<?xml version="1.0" encoding="UTF-8" standalone="no" ?>
<gpx xmlns="http://www.topografix.com/GPX/1/1" xmlns:xsi="http://www.w3.org/2001/XMLSchema-instance" xsi:schemaLocation="http://www.topografix.com/GPX/1/1 http://www.topografix.com/GPX/1/1/gpx.xsd" version="1.1" creator="VisuGPX - https://www.visugpx.com">
  <metadata>
    <name>Mandeure - St Hippolyte GTJ</name>
  </metadata>
  <trk>
    <name><![CDATA[10152993-Mandeure - St Hippolyte GTJ]]></name>
    <trkseg>
      <trkpt lat="47.44989" lon="6.80198">
        <ele>335</ele>
        <time>2019-07-01T18:37:09Z</time>
      </trkpt>
      <trkpt lat="47.44926" lon="6.8008">
        <ele>342</ele>
        <time>2019-07-01T18:37:33Z</time>
      </trkpt>
      <trkpt lat="47.44871" lon="6.80002">
        <ele>351</ele>
        <time>2019-07-01T18:37:51Z</time>
      </trkpt>
      <trkpt lat="47.44714" lon="6.79976">
        <ele>359</ele>
        <time>2019-07-01T18:38:27Z</time>
      </trkpt>
      <trkpt lat="47.44536" lon="6.79921">
        <ele>365</ele>
        <time>2019-07-01T18:39:10Z</time>
      </trkpt>
      <trkpt lat="47.44438" lon="6.799">
        <ele>373</ele>
        <time>2019-07-01T18:39:33Z</time>
      </trkpt>
      <trkpt lat="47.44389" lon="6.79869">
        <ele>381</ele>
        <time>2019-07-01T18:39:45Z</time>
      </trkpt>
      <trkpt lat="47.44383" lon="6.79815">
        <ele>384</ele>
        <time>2019-07-01T18:39:54Z</time>
      </trkpt>
      <trkpt lat="47.44245" lon="6.7989">
        <ele>416</ele>
        <time>2019-07-01T18:40:28Z</time>
      </trkpt>
      <trkpt lat="47.44203" lon="6.79907">
        <ele>422</ele>
        <time>2019-07-01T18:40:39Z</time>
      </trkpt>
      <trkpt lat="47.44154" lon="6.79776">
        <ele>440</ele>
        <time>2019-07-01T18:41:02Z</time>
      </trkpt>
      <trkpt lat="47.44091" lon="6.79658">
        <ele>452</ele>
        <time>2019-07-01T18:41:26Z</time>
      </trkpt>
      <trkpt lat="47.44007" lon="6.79618">
        <ele>456</ele>
        <time>2019-07-01T18:41:47Z</time>
      </trkpt>
      <trkpt lat="47.43931" lon="6.79611">
        <ele>461</ele>
        <time>2019-07-01T18:42:04Z</time>
      </trkpt>
      <trkpt lat="47.43857" lon="6.79539">
        <ele>467</ele>
        <time>2019-07-01T18:42:25Z</time>
      </trkpt>
      <trkpt lat="47.43803" lon="6.79548">
        <ele>470</ele>
        <time>2019-07-01T18:42:38Z</time>
      </trkpt>
      <trkpt lat="47.43772" lon="6.79406">
        <ele>465</ele>
        <time>2019-07-01T18:43:01Z</time>
      </trkpt>
      <trkpt lat="47.43636" lon="6.79427">
        <ele>468</ele>
        <time>2019-07-01T18:43:33Z</time>
      </trkpt>
      <trkpt lat="47.43435" lon="6.7951">
        <ele>470</ele>
        <time>2019-07-01T18:44:22Z</time>
      </trkpt>
      <trkpt lat="47.4323" lon="6.79566">
        <ele>478</ele>
        <time>2019-07-01T18:45:11Z</time>
      </trkpt>
      <trkpt lat="47.43044" lon="6.7959">
        <ele>486</ele>
        <time>2019-07-01T18:45:54Z</time>
      </trkpt>
      <trkpt lat="47.42779" lon="6.79588">
        <ele>491</ele>
        <time>2019-07-01T18:46:56Z</time>
      </trkpt>
      <trkpt lat="47.42491" lon="6.79557">
        <ele>498</ele>
        <time>2019-07-01T18:48:04Z</time>
      </trkpt>
      <trkpt lat="47.42211" lon="6.79481">
        <ele>487</ele>
        <time>2019-07-01T18:49:10Z</time>
      </trkpt>
      <trkpt lat="47.41998" lon="6.79496">
        <ele>495</ele>
        <time>2019-07-01T18:50:00Z</time>
      </trkpt>
      <trkpt lat="47.41921" lon="6.79623">
        <ele>493</ele>
        <time>2019-07-01T18:50:27Z</time>
      </trkpt>
      <trkpt lat="47.41862" lon="6.79989">
        <ele>491</ele>
        <time>2019-07-01T18:51:26Z</time>
      </trkpt>
      <trkpt lat="47.41819" lon="6.80065">
        <ele>494</ele>
        <time>2019-07-01T18:51:42Z</time>
      </trkpt>
      <trkpt lat="47.41738" lon="6.80052">
        <ele>500</ele>
        <time>2019-07-01T18:52:01Z</time>
      </trkpt>
      <trkpt lat="47.41675" lon="6.80047">
        <ele>510</ele>
        <time>2019-07-01T18:52:16Z</time>
      </trkpt>
      <trkpt lat="47.41599" lon="6.79934">
        <ele>505</ele>
        <time>2019-07-01T18:52:41Z</time>
      </trkpt>
      <trkpt lat="47.41546" lon="6.7989">
        <ele>506</ele>
        <time>2019-07-01T18:52:55Z</time>
      </trkpt>
      <trkpt lat="47.4143" lon="6.7986">
        <ele>517</ele>
        <time>2019-07-01T18:53:23Z</time>
      </trkpt>
      <trkpt lat="47.41299" lon="6.7975">
        <ele>519</ele>
        <time>2019-07-01T18:53:58Z</time>
      </trkpt>
      <trkpt lat="47.41218" lon="6.79743">
        <ele>517</ele>
        <time>2019-07-01T18:54:17Z</time>
      </trkpt>
      <trkpt lat="47.41129" lon="6.79848">
        <ele>545</ele>
        <time>2019-07-01T18:54:43Z</time>
      </trkpt>
      <trkpt lat="47.41084" lon="6.79851">
        <ele>550</ele>
        <time>2019-07-01T18:54:54Z</time>
      </trkpt>
      <trkpt lat="47.41012" lon="6.79613">
        <ele>550</ele>
        <time>2019-07-01T18:55:35Z</time>
      </trkpt>
      <trkpt lat="47.40935" lon="6.79387">
        <ele>551</ele>
        <time>2019-07-01T18:56:15Z</time>
      </trkpt>
      <trkpt lat="47.4088" lon="6.79283">
        <ele>549</ele>
        <time>2019-07-01T18:56:36Z</time>
      </trkpt>
      <trkpt lat="47.40777" lon="6.79268">
        <ele>557</ele>
        <time>2019-07-01T18:57:00Z</time>
      </trkpt>
      <trkpt lat="47.40731" lon="6.79311">
        <ele>558</ele>
        <time>2019-07-01T18:57:13Z</time>
      </trkpt>
      <trkpt lat="47.40699" lon="6.79441">
        <ele>566</ele>
        <time>2019-07-01T18:57:35Z</time>
      </trkpt>
      <trkpt lat="47.40596" lon="6.79532">
        <ele>575</ele>
        <time>2019-07-01T18:58:03Z</time>
      </trkpt>
      <trkpt lat="47.4053" lon="6.79619">
        <ele>583</ele>
        <time>2019-07-01T18:58:23Z</time>
      </trkpt>
      <trkpt lat="47.40396" lon="6.79694">
        <ele>579</ele>
        <time>2019-07-01T18:58:57Z</time>
      </trkpt>
      <trkpt lat="47.40335" lon="6.79768">
        <ele>583</ele>
        <time>2019-07-01T18:59:15Z</time>
      </trkpt>
      <trkpt lat="47.40255" lon="6.79835">
        <ele>583</ele>
        <time>2019-07-01T18:59:37Z</time>
      </trkpt>
      <trkpt lat="47.40528" lon="6.80805">
        <ele>562.7</ele>
        <time>2019-07-01T19:43:42Z</time>
      </trkpt>
      <trkpt lat="47.40545" lon="6.80972">
        <ele>565</ele>
        <time>2019-07-01T19:43:42Z</time>
      </trkpt>
      <trkpt lat="47.40532" lon="6.81165">
        <ele>568.5</ele>
        <time>2019-07-01T19:44:27Z</time>
      </trkpt>
      <trkpt lat="47.40468" lon="6.81367">
        <ele>569.2</ele>
        <time>2019-07-01T19:45:42Z</time>
      </trkpt>
      <trkpt lat="47.40295" lon="6.81554">
        <ele>568.2</ele>
        <time>2019-07-01T19:46:24Z</time>
      </trkpt>
      <trkpt lat="47.40205" lon="6.81801">
        <ele>569.6</ele>
        <time>2019-07-01T19:47:16Z</time>
      </trkpt>
      <trkpt lat="47.40108" lon="6.82131">
        <ele>560</ele>
        <time>2019-07-01T19:47:26Z</time>
      </trkpt>
      <trkpt lat="47.40088" lon="6.82289">
        <ele>557.8</ele>
        <time>2019-07-01T19:47:48Z</time>
      </trkpt>
      <trkpt lat="47.40018" lon="6.82476">
        <ele>548.4</ele>
        <time>2019-07-01T19:48:08Z</time>
      </trkpt>
      <trkpt lat="47.40134" lon="6.82796">
        <ele>550</ele>
        <time>2019-07-01T19:48:59Z</time>
      </trkpt>
      <trkpt lat="47.40058" lon="6.82856">
        <ele>546.1</ele>
        <time>2019-07-01T19:49:39Z</time>
      </trkpt>
      <trkpt lat="47.39921" lon="6.83092">
        <ele>542.9</ele>
        <time>2019-07-01T19:50:26Z</time>
      </trkpt>
      <trkpt lat="47.39898" lon="6.83201">
        <ele>549.2</ele>
        <time>2019-07-01T19:51:18Z</time>
      </trkpt>
      <trkpt lat="47.39764" lon="6.83187">
        <ele>550.7</ele>
        <time>2019-07-01T19:51:55Z</time>
      </trkpt>
      <trkpt lat="47.394" lon="6.83433">
        <ele>568.7</ele>
        <time>2019-07-01T19:52:23Z</time>
      </trkpt>
      <trkpt lat="47.39031" lon="6.83545">
        <ele>565.6</ele>
        <time>2019-07-01T19:52:32Z</time>
      </trkpt>
      <trkpt lat="47.38454" lon="6.83867">
        <ele>570</ele>
        <time>2019-07-01T19:52:49Z</time>
      </trkpt>
      <trkpt lat="47.38261" lon="6.83241">
        <ele>558.5</ele>
        <time>2019-07-01T19:53:05Z</time>
      </trkpt>
      <trkpt lat="47.37837" lon="6.83266">
        <ele>560.4</ele>
        <time>2019-07-01T19:53:24Z</time>
      </trkpt>
      <trkpt lat="47.37782" lon="6.83354">
        <ele>558.8</ele>
        <time>2019-07-01T19:54:00Z</time>
      </trkpt>
      <trkpt lat="47.37615" lon="6.83077">
        <ele>565.6</ele>
        <time>2019-07-01T19:54:17Z</time>
      </trkpt>
      <trkpt lat="47.37381" lon="6.82604">
        <ele>582.5</ele>
        <time>2019-07-01T19:54:31Z</time>
      </trkpt>
      <trkpt lat="47.37187" lon="6.82368">
        <ele>603.3</ele>
        <time>2019-07-01T19:55:06Z</time>
      </trkpt>
      <trkpt lat="47.37007" lon="6.81904">
        <ele>643.7</ele>
        <time>2019-07-01T19:55:17Z</time>
      </trkpt>
      <trkpt lat="47.37014" lon="6.81599">
        <ele>652.4</ele>
        <time>2019-07-01T19:55:34Z</time>
      </trkpt>
      <trkpt lat="47.36954" lon="6.81175">
        <ele>663.6</ele>
        <time>2019-07-01T19:56:08Z</time>
      </trkpt>
      <trkpt lat="47.3672" lon="6.8083">
        <ele>713.1</ele>
        <time>2019-07-01T19:56:33Z</time>
      </trkpt>
      <trkpt lat="47.36646" lon="6.80455">
        <ele>749.9</ele>
        <time>2019-07-01T19:56:54Z</time>
      </trkpt>
      <trkpt lat="47.3662" lon="6.79991">
        <ele>761</ele>
        <time>2019-07-01T19:57:12Z</time>
      </trkpt>
      <trkpt lat="47.36586" lon="6.79706">
        <ele>763.7</ele>
        <time>2019-07-01T19:57:42Z</time>
      </trkpt>
      <trkpt lat="47.36583" lon="6.79745">
        <ele>774.7</ele>
        <time>2019-07-01T19:58:10Z</time>
      </trkpt>
      <trkpt lat="47.36583" lon="6.79745">
        <ele>774.7</ele>
        <time>2019-07-01T19:58:28Z</time>
      </trkpt>
      <trkpt lat="47.36485" lon="6.80766">
        <ele>770</ele>
        <time>2019-07-01T19:58:56Z</time>
      </trkpt>
      <trkpt lat="47.36492" lon="6.81052">
        <ele>767</ele>
        <time>2019-07-01T19:59:31Z</time>
      </trkpt>
      <trkpt lat="47.36358" lon="6.81485">
        <ele>782</ele>
        <time>2019-07-01T20:00:05Z</time>
      </trkpt>
      <trkpt lat="47.36268" lon="6.81716">
        <ele>793</ele>
        <time>2019-07-01T20:00:29Z</time>
      </trkpt>
      <trkpt lat="47.36167" lon="6.82006">
        <ele>801</ele>
        <time>2019-07-01T20:01:03Z</time>
      </trkpt>
      <trkpt lat="47.36201" lon="6.82042">
        <ele>805</ele>
        <time>2019-07-01T20:01:29Z</time>
      </trkpt>
      <trkpt lat="47.36214" lon="6.82182">
        <ele>808</ele>
        <time>2019-07-01T20:01:36Z</time>
      </trkpt>
      <trkpt lat="47.36209" lon="6.82308">
        <ele>814</ele>
        <time>2019-07-01T20:01:56Z</time>
      </trkpt>
      <trkpt lat="47.36187" lon="6.82631">
        <ele>826</ele>
        <time>2019-07-01T20:02:14Z</time>
      </trkpt>
      <trkpt lat="47.36196" lon="6.82883">
        <ele>824</ele>
        <time>2019-07-01T20:02:33Z</time>
      </trkpt>
      <trkpt lat="47.36198" lon="6.83175">
        <ele>822</ele>
        <time>2019-07-01T20:02:55Z</time>
      </trkpt>
      <trkpt lat="47.36185" lon="6.83506">
        <ele>816</ele>
        <time>2019-07-01T20:03:18Z</time>
      </trkpt>
      <trkpt lat="47.36203" lon="6.83739">
        <ele>806</ele>
        <time>2019-07-01T20:03:38Z</time>
      </trkpt>
      <trkpt lat="47.36178" lon="6.8391">
        <ele>809</ele>
        <time>2019-07-01T20:04:00Z</time>
      </trkpt>
      <trkpt lat="47.36171" lon="6.83969">
        <ele>809</ele>
        <time>2019-07-01T20:04:18Z</time>
      </trkpt>
      <trkpt lat="47.36103" lon="6.83996">
        <ele>811</ele>
        <time>2019-07-01T20:04:33Z</time>
      </trkpt>
      <trkpt lat="47.36051" lon="6.84065">
        <ele>807</ele>
        <time>2019-07-01T20:05:02Z</time>
      </trkpt>
      <trkpt lat="47.35972" lon="6.84104">
        <ele>802</ele>
        <time>2019-07-01T20:05:38Z</time>
      </trkpt>
      <trkpt lat="47.35821" lon="6.84058">
        <ele>800</ele>
        <time>2019-07-01T20:06:03Z</time>
      </trkpt>
      <trkpt lat="47.35774" lon="6.83982">
        <ele>798</ele>
        <time>2019-07-01T20:06:42Z</time>
      </trkpt>
      <trkpt lat="47.35732" lon="6.83918">
        <ele>790</ele>
        <time>2019-07-01T20:07:16Z</time>
      </trkpt>
      <trkpt lat="47.35767" lon="6.83703">
        <ele>800</ele>
        <time>2019-07-01T20:07:28Z</time>
      </trkpt>
      <trkpt lat="47.35756" lon="6.83635">
        <ele>803</ele>
        <time>2019-07-01T20:07:49Z</time>
      </trkpt>
      <trkpt lat="47.35696" lon="6.83571">
        <ele>793</ele>
        <time>2019-07-01T20:08:04Z</time>
      </trkpt>
      <trkpt lat="47.35622" lon="6.83385">
        <ele>784</ele>
        <time>2019-07-01T20:08:30Z</time>
      </trkpt>
      <trkpt lat="47.35592" lon="6.83237">
        <ele>780</ele>
        <time>2019-07-01T20:08:46Z</time>
      </trkpt>
      <trkpt lat="47.35551" lon="6.83359">
        <ele>776</ele>
        <time>2019-07-01T20:09:10Z</time>
      </trkpt>
      <trkpt lat="47.35524" lon="6.83463">
        <ele>772</ele>
        <time>2019-07-01T20:09:35Z</time>
      </trkpt>
      <trkpt lat="47.35459" lon="6.8363">
        <ele>778</ele>
        <time>2019-07-01T20:10:09Z</time>
      </trkpt>
      <trkpt lat="47.35378" lon="6.83756">
        <ele>775</ele>
        <time>2019-07-01T20:10:29Z</time>
      </trkpt>
      <trkpt lat="47.35401" lon="6.83864">
        <ele>775</ele>
        <time>2019-07-01T20:11:03Z</time>
      </trkpt>
      <trkpt lat="47.35434" lon="6.84039">
        <ele>769</ele>
        <time>2019-07-01T20:11:17Z</time>
      </trkpt>
      <trkpt lat="47.35426" lon="6.84257">
        <ele>762</ele>
        <time>2019-07-01T20:11:32Z</time>
      </trkpt>
      <trkpt lat="47.35329" lon="6.84421">
        <ele>738</ele>
        <time>2019-07-01T20:11:55Z</time>
      </trkpt>
      <trkpt lat="47.35275" lon="6.84549">
        <ele>728</ele>
        <time>2019-07-01T20:12:16Z</time>
      </trkpt>
      <trkpt lat="47.35191" lon="6.84377">
        <ele>710</ele>
        <time>2019-07-01T20:12:26Z</time>
      </trkpt>
      <trkpt lat="47.35152" lon="6.84221">
        <ele>701</ele>
        <time>2019-07-01T20:12:47Z</time>
      </trkpt>
      <trkpt lat="47.35136" lon="6.84186">
        <ele>698</ele>
        <time>2019-07-01T20:12:52Z</time>
      </trkpt>
      <trkpt lat="47.35061" lon="6.84246">
        <ele>684</ele>
        <time>2019-07-01T20:13:15Z</time>
      </trkpt>
      <trkpt lat="47.35001" lon="6.84168">
        <ele>675</ele>
        <time>2019-07-01T20:13:36Z</time>
      </trkpt>
      <trkpt lat="47.3492" lon="6.84161">
        <ele>667</ele>
        <time>2019-07-01T20:13:58Z</time>
      </trkpt>
      <trkpt lat="47.34917" lon="6.84022">
        <ele>669</ele>
        <time>2019-07-01T20:14:26Z</time>
      </trkpt>
      <trkpt lat="47.34823" lon="6.83994">
        <ele>659</ele>
        <time>2019-07-01T20:14:44Z</time>
      </trkpt>
      <trkpt lat="47.34801" lon="6.84118">
        <ele>658</ele>
        <time>2019-07-01T20:15:08Z</time>
      </trkpt>
      <trkpt lat="47.3473" lon="6.84205">
        <ele>657</ele>
        <time>2019-07-01T20:15:19Z</time>
      </trkpt>
      <trkpt lat="47.34652" lon="6.84218">
        <ele>655</ele>
        <time>2019-07-01T20:15:51Z</time>
      </trkpt>
      <trkpt lat="47.34589" lon="6.84226">
        <ele>654</ele>
        <time>2019-07-01T20:16:34Z</time>
      </trkpt>
      <trkpt lat="47.34463" lon="6.84216">
        <ele>653</ele>
        <time>2019-07-01T20:17:20Z</time>
      </trkpt>
      <trkpt lat="47.3431" lon="6.84229">
        <ele>650</ele>
        <time>2019-07-01T20:17:44Z</time>
      </trkpt>
      <trkpt lat="47.34212" lon="6.843">
        <ele>651</ele>
        <time>2019-07-01T20:18:20Z</time>
      </trkpt>
      <trkpt lat="47.3406" lon="6.84387">
        <ele>656</ele>
        <time>2019-07-01T20:18:50Z</time>
      </trkpt>
      <trkpt lat="47.33934" lon="6.84496">
        <ele>665</ele>
        <time>2019-07-01T20:19:13Z</time>
      </trkpt>
      <trkpt lat="47.33892" lon="6.84545">
        <ele>673</ele>
        <time>2019-07-01T20:19:27Z</time>
      </trkpt>
      <trkpt lat="47.33909" lon="6.84673">
        <ele>687</ele>
        <time>2019-07-01T20:19:51Z</time>
      </trkpt>
      <trkpt lat="47.33919" lon="6.84766">
        <ele>699</ele>
        <time>2019-07-01T20:20:21Z</time>
      </trkpt>
      <trkpt lat="47.33868" lon="6.84914">
        <ele>714</ele>
        <time>2019-07-01T20:20:58Z</time>
      </trkpt>
      <trkpt lat="47.3382" lon="6.8499">
        <ele>723</ele>
        <time>2019-07-01T20:21:37Z</time>
      </trkpt>
      <trkpt lat="47.33721" lon="6.85001">
        <ele>730</ele>
        <time>2019-07-01T20:22:10Z</time>
      </trkpt>
      <trkpt lat="47.33632" lon="6.85093">
        <ele>729</ele>
        <time>2019-07-01T20:22:23Z</time>
      </trkpt>
      <trkpt lat="47.33498" lon="6.85181">
        <ele>715</ele>
        <time>2019-07-01T20:22:50Z</time>
      </trkpt>
      <trkpt lat="47.33412" lon="6.85174">
        <ele>703</ele>
        <time>2019-07-01T20:23:20Z</time>
      </trkpt>
      <trkpt lat="47.33285" lon="6.85077">
        <ele>688</ele>
        <time>2019-07-01T20:23:34Z</time>
      </trkpt>
      <trkpt lat="47.33228" lon="6.85039">
        <ele>675</ele>
        <time>2019-07-01T20:23:42Z</time>
      </trkpt>
      <trkpt lat="47.33173" lon="6.85081">
        <ele>655</ele>
        <time>2019-07-01T20:24:00Z</time>
      </trkpt>
      <trkpt lat="47.33105" lon="6.84976">
        <ele>647</ele>
        <time>2019-07-01T20:24:33Z</time>
      </trkpt>
      <trkpt lat="47.33041" lon="6.84884">
        <ele>631</ele>
        <time>2019-07-01T20:24:54Z</time>
      </trkpt>
      <trkpt lat="47.33025" lon="6.84823">
        <ele>621</ele>
        <time>2019-07-01T20:25:15Z</time>
      </trkpt>
      <trkpt lat="47.32938" lon="6.84849">
        <ele>605</ele>
        <time>2019-07-01T20:25:57Z</time>
      </trkpt>
      <trkpt lat="47.32916" lon="6.84847">
        <ele>600</ele>
        <time>2019-07-01T20:26:22Z</time>
      </trkpt>
      <trkpt lat="47.32975" lon="6.84726">
        <ele>580</ele>
        <time>2019-07-01T20:26:34Z</time>
      </trkpt>
      <trkpt lat="47.33033" lon="6.84625">
        <ele>571</ele>
        <time>2019-07-01T20:26:50Z</time>
      </trkpt>
      <trkpt lat="47.33074" lon="6.84503">
        <ele>561</ele>
        <time>2019-07-01T20:27:06Z</time>
      </trkpt>
      <trkpt lat="47.32993" lon="6.84376">
        <ele>526</ele>
        <time>2019-07-01T20:27:23Z</time>
      </trkpt>
      <trkpt lat="47.32952" lon="6.84274">
        <ele>513</ele>
        <time>2019-07-01T20:27:43Z</time>
      </trkpt>
      <trkpt lat="47.32912" lon="6.84138">
        <ele>510</ele>
        <time>2019-07-01T20:28:06Z</time>
      </trkpt>
      <trkpt lat="47.32873" lon="6.84101">
        <ele>501</ele>
        <time>2019-07-01T20:28:08Z</time>
      </trkpt>
      <trkpt lat="47.32908" lon="6.83905">
        <ele>500</ele>
      </trkpt>
      <trkpt lat="47.32823" lon="6.8366">
        <ele>491</ele>
      </trkpt>
      <trkpt lat="47.32802" lon="6.83373">
        <ele>491</ele>
      </trkpt>
      <trkpt lat="47.32813" lon="6.83222">
        <ele>505</ele>
      </trkpt>
      <trkpt lat="47.32735" lon="6.83029">
        <ele>502</ele>
      </trkpt>
      <trkpt lat="47.32715" lon="6.82842">
        <ele>503</ele>
      </trkpt>
      <trkpt lat="47.32661" lon="6.82718">
        <ele>501</ele>
      </trkpt>
      <trkpt lat="47.32633" lon="6.82637">
        <ele>501</ele>
      </trkpt>
      <trkpt lat="47.32565" lon="6.82525">
        <ele>491</ele>
      </trkpt>
      <trkpt lat="47.32563" lon="6.82339">
        <ele>492</ele>
      </trkpt>
      <trkpt lat="47.32504" lon="6.82122">
        <ele>483</ele>
      </trkpt>
      <trkpt lat="47.3239" lon="6.81934">
        <ele>469</ele>
      </trkpt>
      <trkpt lat="47.32292" lon="6.81786">
        <ele>456</ele>
      </trkpt>
      <trkpt lat="47.32308" lon="6.81708">
        <ele>459</ele>
      </trkpt>
      <trkpt lat="47.32411" lon="6.81631">
        <ele>456</ele>
      </trkpt>
      <trkpt lat="47.32538" lon="6.81602">
        <ele>448</ele>
      </trkpt>
      <trkpt lat="47.32597" lon="6.8158">
        <ele>450</ele>
      </trkpt>
      <trkpt lat="47.32603" lon="6.81534">
        <ele>445</ele>
      </trkpt>
      <trkpt lat="47.32528" lon="6.81515">
        <ele>433</ele>
      </trkpt>
      <trkpt lat="47.32401" lon="6.81411">
        <ele>405</ele>
      </trkpt>
      <trkpt lat="47.32312" lon="6.81391">
        <ele>396</ele>
      </trkpt>
      <trkpt lat="47.32225" lon="6.81423">
        <ele>392</ele>
      </trkpt>
      <trkpt lat="47.32088" lon="6.8159">
        <ele>386</ele>
      </trkpt>
      <trkpt lat="47.31995" lon="6.81669">
        <ele>383</ele>
      </trkpt>
      <trkpt lat="47.31945" lon="6.81678">
        <ele>378</ele>
      </trkpt>
      <trkpt lat="47.3194" lon="6.81578">
        <ele>378</ele>
      </trkpt>
      <trkpt lat="47.31988" lon="6.81502">
        <ele>379</ele>
      </trkpt>
      <trkpt lat="47.31946" lon="6.81413">
        <ele>376</ele>
      </trkpt>
      <trkpt lat="47.31891" lon="6.81316">
        <ele>375</ele>
      </trkpt>
      <trkpt lat="47.31804" lon="6.81249">
        <ele>380</ele>
      </trkpt>
      <trkpt lat="47.31799" lon="6.81255">
        <ele>380</ele>
      </trkpt>
    </trkseg>
  </trk>
</gpx>